sensor_id;sensor_type;location;lat;lon;timestamp;pressure;altitude;pressure_sealevel;temperature;humidity
55517;BME280;41724;51.176;-0.708;2023-01-26T00:00:44;102373.37;;;7.99;62.49
55517;BME280;41724;51.176;-0.708;2023-01-26T00:03:12;102372.19;;;8.16;62.52
55517;BME280;41724;51.176;-0.708;2023-01-26T00:05:39;102371.00;;;7.93;62.54
55517;BME280;41724;51.176;-0.708;2023-01-26T00:08:08;102369.63;;;8.12;62.44
55517;BME280;41724;51.176;-0.708;2023-01-26T00:10:36;102369.25;;;8.30;62.40
55517;BME280;41724;51.176;-0.708;2023-01-26T00:13:04;102371.92;;;7.84;62.56
55517;BME280;41724;51.176;-0.708;2023-01-26T00:15:32;102370.30;;;7.90;63.00
55517;BME280;41724;51.176;-0.708;2023-01-26T00:17:59;102363.93;;;7.57;64.12
55517;BME280;41724;51.176;-0.708;2023-01-26T00:20:27;102363.68;;;7.43;64.27
55517;BME280;41724;51.176;-0.708;2023-01-26T00:22:54;102363.65;;;7.44;63.98
55517;BME280;41724;51.176;-0.708;2023-01-26T00:25:21;102368.99;;;7.62;63.59
55517;BME280;41724;51.176;-0.708;2023-01-26T00:27:48;102361.87;;;7.78;63.79
55517;BME280;41724;51.176;-0.708;2023-01-26T00:30:20;102361.08;;;7.46;63.23
55517;BME280;41724;51.176;-0.708;2023-01-26T00:32:48;102359.98;;;7.02;64.19
55517;BME280;41724;51.176;-0.708;2023-01-26T00:35:15;102364.90;;;7.39;63.95
55517;BME280;41724;51.176;-0.708;2023-01-26T00:37:43;102367.22;;;7.71;62.94
55517;BME280;41724;51.176;-0.708;2023-01-26T00:40:10;102367.70;;;7.06;63.27
55517;BME280;41724;51.176;-0.708;2023-01-26T00:42:38;102371.69;;;7.19;63.33
55517;BME280;41724;51.176;-0.708;2023-01-26T00:45:06;102370.86;;;6.96;63.98
55517;BME280;41724;51.176;-0.708;2023-01-26T00:47:33;102376.73;;;7.21;63.75
55517;BME280;41724;51.176;-0.708;2023-01-26T00:50:00;102375.18;;;7.16;63.99
55517;BME280;41724;51.176;-0.708;2023-01-26T00:52:28;102374.74;;;7.29;63.47
55517;BME280;41724;51.176;-0.708;2023-01-26T00:54:55;102375.87;;;7.46;63.27
55517;BME280;41724;51.176;-0.708;2023-01-26T00:57:22;102373.18;;;7.29;62.75
55517;BME280;41724;51.176;-0.708;2023-01-26T00:59:49;102370.42;;;7.26;62.36
55517;BME280;41724;51.176;-0.708;2023-01-26T01:02:17;102371.99;;;7.34;62.44
55517;BME280;41724;51.176;-0.708;2023-01-26T01:04:43;102366.86;;;7.17;63.95
55517;BME280;41724;51.176;-0.708;2023-01-26T01:07:11;102370.16;;;7.44;63.30
55517;BME280;41724;51.176;-0.708;2023-01-26T01:09:39;102365.61;;;7.33;62.87
55517;BME280;41724;51.176;-0.708;2023-01-26T01:12:06;102363.19;;;7.76;62.55
55517;BME280;41724;51.176;-0.708;2023-01-26T01:14:33;102368.39;;;7.32;62.64
55517;BME280;41724;51.176;-0.708;2023-01-26T01:17:00;102365.01;;;7.46;61.89
55517;BME280;41724;51.176;-0.708;2023-01-26T01:19:28;102358.88;;;6.99;61.96
55517;BME280;41724;51.176;-0.708;2023-01-26T01:21:55;102366.55;;;7.14;62.45
55517;BME280;41724;51.176;-0.708;2023-01-26T01:24:22;102372.24;;;7.17;62.69
55517;BME280;41724;51.176;-0.708;2023-01-26T01:26:49;102368.49;;;7.02;62.43
55517;BME280;41724;51.176;-0.708;2023-01-26T01:29:17;102371.35;;;6.90;62.93
55517;BME280;41724;51.176;-0.708;2023-01-26T01:31:44;102373.94;;;6.83;63.17
55517;BME280;41724;51.176;-0.708;2023-01-26T01:34:11;102376.11;;;6.70;63.60
55517;BME280;41724;51.176;-0.708;2023-01-26T01:36:39;102372.82;;;6.61;63.87
55517;BME280;41724;51.176;-0.708;2023-01-26T01:39:06;102374.44;;;6.87;63.76
55517;BME280;41724;51.176;-0.708;2023-01-26T01:41:33;102370.63;;;6.88;62.58
55517;BME280;41724;51.176;-0.708;2023-01-26T01:44:17;102378.26;;;6.86;62.67
55517;BME280;41724;51.176;-0.708;2023-01-26T01:46:49;102376.82;;;6.82;62.16
55517;BME280;41724;51.176;-0.708;2023-01-26T01:49:22;102377.53;;;7.32;61.34
55517;BME280;41724;51.176;-0.708;2023-01-26T01:51:54;102378.06;;;7.09;61.29
55517;BME280;41724;51.176;-0.708;2023-01-26T01:54:27;102376.13;;;6.27;63.23
55517;BME280;41724;51.176;-0.708;2023-01-26T01:56:57;102381.72;;;6.57;62.75
55517;BME280;41724;51.176;-0.708;2023-01-26T01:59:27;102375.91;;;6.89;62.54
55517;BME280;41724;51.176;-0.708;2023-01-26T02:01:55;102381.60;;;6.85;62.06
55517;BME280;41724;51.176;-0.708;2023-01-26T02:04:23;102377.96;;;6.57;61.03
55517;BME280;41724;51.176;-0.708;2023-01-26T02:06:54;102378.69;;;7.11;61.01
55517;BME280;41724;51.176;-0.708;2023-01-26T02:09:26;102378.24;;;6.98;60.38
55517;BME280;41724;51.176;-0.708;2023-01-26T02:11:56;102376.42;;;6.52;60.98
55517;BME280;41724;51.176;-0.708;2023-01-26T02:14:26;102375.67;;;6.77;60.26
55517;BME280;41724;51.176;-0.708;2023-01-26T02:16:54;102377.17;;;6.74;59.70
55517;BME280;41724;51.176;-0.708;2023-01-26T02:19:26;102373.84;;;6.36;61.29
55517;BME280;41724;51.176;-0.708;2023-01-26T02:22:03;102372.78;;;6.49;60.51
55517;BME280;41724;51.176;-0.708;2023-01-26T02:24:36;102374.28;;;6.32;61.61
55517;BME280;41724;51.176;-0.708;2023-01-26T02:27:06;102378.22;;;5.81;62.53
55517;BME280;41724;51.176;-0.708;2023-01-26T02:29:33;102378.88;;;5.85;61.50
55517;BME280;41724;51.176;-0.708;2023-01-26T02:32:00;102384.92;;;5.99;60.90
55517;BME280;41724;51.176;-0.708;2023-01-26T02:34:27;102382.76;;;6.10;59.82
55517;BME280;41724;51.176;-0.708;2023-01-26T02:36:56;102391.98;;;5.69;62.90
55517;BME280;41724;51.176;-0.708;2023-01-26T02:39:35;102393.84;;;6.22;61.26
55517;BME280;41724;51.176;-0.708;2023-01-26T02:42:07;102395.88;;;5.84;60.64
55517;BME280;41724;51.176;-0.708;2023-01-26T02:44:34;102399.93;;;6.21;61.18
55517;BME280;41724;51.176;-0.708;2023-01-26T02:47:10;102398.04;;;5.89;60.16
55517;BME280;41724;51.176;-0.708;2023-01-26T02:49:38;102396.72;;;5.90;60.50
55517;BME280;41724;51.176;-0.708;2023-01-26T02:52:07;102401.70;;;6.07;61.32
55517;BME280;41724;51.176;-0.708;2023-01-26T02:54:34;102401.01;;;5.76;61.58
55517;BME280;41724;51.176;-0.708;2023-01-26T02:57:01;102406.43;;;5.84;61.36
55517;BME280;41724;51.176;-0.708;2023-01-26T02:59:28;102407.25;;;6.01;61.57
55517;BME280;41724;51.176;-0.708;2023-01-26T03:01:56;102407.52;;;5.76;62.92
55517;BME280;41724;51.176;-0.708;2023-01-26T03:04:23;102407.31;;;5.46;63.55
55517;BME280;41724;51.176;-0.708;2023-01-26T03:06:51;102405.36;;;5.83;63.04
55517;BME280;41724;51.176;-0.708;2023-01-26T03:09:18;102409.45;;;5.86;63.03
55517;BME280;41724;51.176;-0.708;2023-01-26T03:11:45;102408.27;;;5.90;62.60
55517;BME280;41724;51.176;-0.708;2023-01-26T03:14:13;102409.45;;;6.31;62.45
55517;BME280;41724;51.176;-0.708;2023-01-26T03:16:41;102406.44;;;5.55;64.10
55517;BME280;41724;51.176;-0.708;2023-01-26T03:19:12;102406.73;;;5.86;62.90
55517;BME280;41724;51.176;-0.708;2023-01-26T03:21:39;102410.00;;;6.02;62.20
55517;BME280;41724;51.176;-0.708;2023-01-26T03:24:11;102408.22;;;5.71;61.77
55517;BME280;41724;51.176;-0.708;2023-01-26T03:26:38;102410.13;;;6.02;61.98
55517;BME280;41724;51.176;-0.708;2023-01-26T03:29:06;102409.10;;;6.23;61.20
55517;BME280;41724;51.176;-0.708;2023-01-26T03:31:33;102405.65;;;5.93;61.31
55517;BME280;41724;51.176;-0.708;2023-01-26T03:34:00;102412.57;;;6.39;61.18
55517;BME280;41724;51.176;-0.708;2023-01-26T03:36:27;102410.50;;;5.60;61.55
55517;BME280;41724;51.176;-0.708;2023-01-26T03:38:55;102413.35;;;5.97;61.17
55517;BME280;41724;51.176;-0.708;2023-01-26T03:41:22;102414.19;;;5.72;61.40
55517;BME280;41724;51.176;-0.708;2023-01-26T03:43:49;102417.81;;;6.00;61.09
55517;BME280;41724;51.176;-0.708;2023-01-26T03:46:17;102414.80;;;5.95;60.95
55517;BME280;41724;51.176;-0.708;2023-01-26T03:48:44;102416.01;;;6.37;60.43
55517;BME280;41724;51.176;-0.708;2023-01-26T03:51:11;102424.88;;;5.87;60.34
55517;BME280;41724;51.176;-0.708;2023-01-26T03:53:38;102425.18;;;6.15;60.07
55517;BME280;41724;51.176;-0.708;2023-01-26T03:56:06;102422.06;;;5.65;60.09
55517;BME280;41724;51.176;-0.708;2023-01-26T03:58:34;102418.07;;;5.96;60.62
55517;BME280;41724;51.176;-0.708;2023-01-26T04:01:02;102425.23;;;5.78;60.19
55517;BME280;41724;51.176;-0.708;2023-01-26T04:03:29;102425.93;;;6.08;59.96
55517;BME280;41724;51.176;-0.708;2023-01-26T04:05:57;102425.30;;;5.86;59.45
55517;BME280;41724;51.176;-0.708;2023-01-26T04:08:24;102419.76;;;5.81;59.45
55517;BME280;41724;51.176;-0.708;2023-01-26T04:10:52;102421.00;;;5.56;59.88
55517;BME280;41724;51.176;-0.708;2023-01-26T04:13:21;102422.49;;;5.75;58.82
55517;BME280;41724;51.176;-0.708;2023-01-26T04:15:49;102429.17;;;5.42;59.31
55517;BME280;41724;51.176;-0.708;2023-01-26T04:18:16;102431.83;;;5.71;58.91
55517;BME280;41724;51.176;-0.708;2023-01-26T04:20:43;102430.83;;;5.73;59.09
55517;BME280;41724;51.176;-0.708;2023-01-26T04:23:16;102426.27;;;5.23;60.08
55517;BME280;41724;51.176;-0.708;2023-01-26T04:25:44;102432.92;;;5.10;58.91
55517;BME280;41724;51.176;-0.708;2023-01-26T04:28:11;102431.35;;;5.47;59.34
55517;BME280;41724;51.176;-0.708;2023-01-26T04:30:38;102429.39;;;5.58;58.87
55517;BME280;41724;51.176;-0.708;2023-01-26T04:33:06;102436.74;;;5.27;58.21
55517;BME280;41724;51.176;-0.708;2023-01-26T04:35:33;102438.59;;;5.20;58.75
55517;BME280;41724;51.176;-0.708;2023-01-26T04:38:00;102438.23;;;5.23;57.83
55517;BME280;41724;51.176;-0.708;2023-01-26T04:40:28;102452.90;;;5.14;58.20
55517;BME280;41724;51.176;-0.708;2023-01-26T04:42:55;102452.11;;;5.12;58.21
55517;BME280;41724;51.176;-0.708;2023-01-26T04:45:22;102456.08;;;5.08;57.45
55517;BME280;41724;51.176;-0.708;2023-01-26T04:47:50;102455.70;;;4.43;58.88
55517;BME280;41724;51.176;-0.708;2023-01-26T04:50:17;102459.70;;;4.60;58.99
55517;BME280;41724;51.176;-0.708;2023-01-26T04:52:44;102464.19;;;4.50;60.17
55517;BME280;41724;51.176;-0.708;2023-01-26T04:55:12;102463.94;;;4.57;59.36
55517;BME280;41724;51.176;-0.708;2023-01-26T04:57:39;102461.52;;;4.61;58.78
55517;BME280;41724;51.176;-0.708;2023-01-26T05:00:08;102463.72;;;4.92;58.63
55517;BME280;41724;51.176;-0.708;2023-01-26T05:02:35;102467.32;;;4.92;59.09
55517;BME280;41724;51.176;-0.708;2023-01-26T05:05:02;102463.25;;;4.54;59.41
55517;BME280;41724;51.176;-0.708;2023-01-26T05:07:29;102461.41;;;4.62;58.96
55517;BME280;41724;51.176;-0.708;2023-01-26T05:09:57;102457.97;;;4.51;59.35
55517;BME280;41724;51.176;-0.708;2023-01-26T05:12:25;102456.92;;;3.89;62.78
55517;BME280;41724;51.176;-0.708;2023-01-26T05:14:52;102457.79;;;4.40;62.39
55517;BME280;41724;51.176;-0.708;2023-01-26T05:17:19;102453.67;;;4.99;61.97
55517;BME280;41724;51.176;-0.708;2023-01-26T05:19:47;102458.20;;;4.39;62.23
55517;BME280;41724;51.176;-0.708;2023-01-26T05:22:14;102454.91;;;4.91;62.79
55517;BME280;41724;51.176;-0.708;2023-01-26T05:24:41;102450.45;;;4.36;63.01
55517;BME280;41724;51.176;-0.708;2023-01-26T05:27:09;102450.85;;;4.92;62.90
55517;BME280;41724;51.176;-0.708;2023-01-26T05:29:36;102453.86;;;4.78;62.84
55517;BME280;41724;51.176;-0.708;2023-01-26T05:32:03;102453.64;;;5.28;62.63
55517;BME280;41724;51.176;-0.708;2023-01-26T05:34:30;102453.92;;;5.45;61.90
55517;BME280;41724;51.176;-0.708;2023-01-26T05:36:58;102451.68;;;5.72;61.36
55517;BME280;41724;51.176;-0.708;2023-01-26T05:39:25;102448.90;;;5.69;61.53
55517;BME280;41724;51.176;-0.708;2023-01-26T05:41:53;102445.37;;;5.73;61.36
55517;BME280;41724;51.176;-0.708;2023-01-26T05:44:20;102445.38;;;5.90;61.62
55517;BME280;41724;51.176;-0.708;2023-01-26T05:46:47;102443.84;;;5.47;61.41
55517;BME280;41724;51.176;-0.708;2023-01-26T05:49:14;102451.68;;;5.77;60.44
55517;BME280;41724;51.176;-0.708;2023-01-26T05:51:42;102448.73;;;6.21;61.11
55517;BME280;41724;51.176;-0.708;2023-01-26T05:54:09;102443.86;;;6.62;60.29
55517;BME280;41724;51.176;-0.708;2023-01-26T05:56:36;102445.01;;;6.13;59.78
55517;BME280;41724;51.176;-0.708;2023-01-26T05:59:04;102444.28;;;6.38;59.32
55517;BME280;41724;51.176;-0.708;2023-01-26T06:01:31;102445.84;;;6.07;59.66
55517;BME280;41724;51.176;-0.708;2023-01-26T06:03:58;102440.73;;;5.83;60.07
55517;BME280;41724;51.176;-0.708;2023-01-26T06:06:25;102446.12;;;6.25;60.66
55517;BME280;41724;51.176;-0.708;2023-01-26T06:08:52;102448.51;;;6.66;59.93
55517;BME280;41724;51.176;-0.708;2023-01-26T06:11:20;102452.69;;;6.60;59.35
55517;BME280;41724;51.176;-0.708;2023-01-26T06:13:47;102443.78;;;6.70;58.36
55517;BME280;41724;51.176;-0.708;2023-01-26T06:16:14;102446.02;;;6.83;58.42
55517;BME280;41724;51.176;-0.708;2023-01-26T06:18:41;102446.59;;;6.74;58.34
55517;BME280;41724;51.176;-0.708;2023-01-26T06:21:08;102453.73;;;5.91;60.43
55517;BME280;41724;51.176;-0.708;2023-01-26T06:23:35;102459.48;;;6.17;60.43
55517;BME280;41724;51.176;-0.708;2023-01-26T06:26:02;102458.25;;;6.26;61.15
55517;BME280;41724;51.176;-0.708;2023-01-26T06:28:30;102468.64;;;6.67;60.13
55517;BME280;41724;51.176;-0.708;2023-01-26T06:30:59;102469.55;;;6.32;60.70
55517;BME280;41724;51.176;-0.708;2023-01-26T06:33:27;102467.18;;;6.59;61.41
55517;BME280;41724;51.176;-0.708;2023-01-26T06:35:54;102479.01;;;6.63;60.75
55517;BME280;41724;51.176;-0.708;2023-01-26T06:38:22;102481.22;;;6.15;60.39
55517;BME280;41724;51.176;-0.708;2023-01-26T06:40:49;102480.51;;;7.01;59.94
55517;BME280;41724;51.176;-0.708;2023-01-26T06:43:16;102483.31;;;6.99;59.53
55517;BME280;41724;51.176;-0.708;2023-01-26T06:45:43;102486.70;;;7.13;60.11
55517;BME280;41724;51.176;-0.708;2023-01-26T06:48:10;102490.44;;;6.95;59.70
55517;BME280;41724;51.176;-0.708;2023-01-26T06:50:39;102493.93;;;6.81;60.11
55517;BME280;41724;51.176;-0.708;2023-01-26T06:53:25;102497.10;;;7.15;59.93
55517;BME280;41724;51.176;-0.708;2023-01-26T06:55:52;102503.27;;;6.98;60.11
55517;BME280;41724;51.176;-0.708;2023-01-26T06:58:19;102509.92;;;7.01;60.33
55517;BME280;41724;51.176;-0.708;2023-01-26T07:00:46;102510.58;;;7.04;60.11
55517;BME280;41724;51.176;-0.708;2023-01-26T07:03:14;102516.03;;;6.26;62.02
55517;BME280;41724;51.176;-0.708;2023-01-26T07:05:41;102517.25;;;6.82;61.96
55517;BME280;41724;51.176;-0.708;2023-01-26T07:08:08;102520.15;;;7.18;60.54
55517;BME280;41724;51.176;-0.708;2023-01-26T07:10:36;102524.34;;;7.42;59.87
55517;BME280;41724;51.176;-0.708;2023-01-26T07:13:03;102526.95;;;7.51;60.00
55517;BME280;41724;51.176;-0.708;2023-01-26T07:15:31;102528.88;;;7.45;59.00
55517;BME280;41724;51.176;-0.708;2023-01-26T07:17:59;102523.94;;;7.49;59.07
55517;BME280;41724;51.176;-0.708;2023-01-26T07:20:27;102524.89;;;7.42;58.94
55517;BME280;41724;51.176;-0.708;2023-01-26T07:22:54;102531.39;;;6.36;61.23
55517;BME280;41724;51.176;-0.708;2023-01-26T07:25:26;102536.05;;;7.41;59.66
55517;BME280;41724;51.176;-0.708;2023-01-26T07:27:55;102537.87;;;7.48;59.04
55517;BME280;41724;51.176;-0.708;2023-01-26T07:30:22;102545.83;;;7.34;58.78
55517;BME280;41724;51.176;-0.708;2023-01-26T07:32:50;102540.09;;;7.89;59.01
55517;BME280;41724;51.176;-0.708;2023-01-26T07:35:17;102535.61;;;7.60;58.11
55517;BME280;41724;51.176;-0.708;2023-01-26T07:37:44;102532.03;;;7.23;59.07
55517;BME280;41724;51.176;-0.708;2023-01-26T07:40:12;102530.68;;;7.64;58.57
55517;BME280;41724;51.176;-0.708;2023-01-26T07:42:40;102527.36;;;7.87;58.20
55517;BME280;41724;51.176;-0.708;2023-01-26T07:45:08;102530.87;;;7.78;57.70
55517;BME280;41724;51.176;-0.708;2023-01-26T07:47:35;102550.28;;;7.81;57.63
55517;BME280;41724;51.176;-0.708;2023-01-26T07:50:02;102548.91;;;7.88;57.81
55517;BME280;41724;51.176;-0.708;2023-01-26T07:52:29;102549.33;;;7.90;57.52
55517;BME280;41724;51.176;-0.708;2023-01-26T07:54:57;102553.43;;;7.99;57.90
55517;BME280;41724;51.176;-0.708;2023-01-26T07:57:24;102561.10;;;8.06;57.59
55517;BME280;41724;51.176;-0.708;2023-01-26T07:59:51;102567.21;;;7.81;57.74
55517;BME280;41724;51.176;-0.708;2023-01-26T08:02:19;102562.41;;;7.47;57.85
55517;BME280;41724;51.176;-0.708;2023-01-26T08:04:46;102556.68;;;7.89;58.73
55517;BME280;41724;51.176;-0.708;2023-01-26T08:07:13;102557.96;;;6.94;59.29
55517;BME280;41724;51.176;-0.708;2023-01-26T08:09:40;102559.12;;;7.12;59.59
55517;BME280;41724;51.176;-0.708;2023-01-26T08:12:07;102560.75;;;7.05;59.82
55517;BME280;41724;51.176;-0.708;2023-01-26T08:14:35;102555.11;;;7.24;59.85
55517;BME280;41724;51.176;-0.708;2023-01-26T08:17:02;102554.03;;;8.03;59.20
55517;BME280;41724;51.176;-0.708;2023-01-26T08:19:29;102552.51;;;7.70;57.91
55517;BME280;41724;51.176;-0.708;2023-01-26T08:21:56;102558.20;;;7.95;58.02
55517;BME280;41724;51.176;-0.708;2023-01-26T08:24:23;102559.55;;;7.10;59.15
55517;BME280;41724;51.176;-0.708;2023-01-26T08:26:51;102559.15;;;7.40;59.07
55517;BME280;41724;51.176;-0.708;2023-01-26T08:29:18;102558.25;;;6.99;60.21
55517;BME280;41724;51.176;-0.708;2023-01-26T08:31:45;102548.59;;;7.58;60.31
55517;BME280;41724;51.176;-0.708;2023-01-26T08:34:12;102542.35;;;7.56;59.41
55517;BME280;41724;51.176;-0.708;2023-01-26T08:36:40;102537.12;;;7.84;59.31
55517;BME280;41724;51.176;-0.708;2023-01-26T08:39:07;102540.07;;;7.68;59.18
55517;BME280;41724;51.176;-0.708;2023-01-26T08:41:34;102539.09;;;7.94;59.65
55517;BME280;41724;51.176;-0.708;2023-01-26T08:44:02;102544.54;;;7.79;58.44
55517;BME280;41724;51.176;-0.708;2023-01-26T08:46:29;102549.80;;;7.49;58.71
55517;BME280;41724;51.176;-0.708;2023-01-26T08:48:56;102551.97;;;7.80;58.92
55517;BME280;41724;51.176;-0.708;2023-01-26T08:51:23;102550.67;;;7.19;59.65
55517;BME280;41724;51.176;-0.708;2023-01-26T08:53:51;102552.56;;;7.15;59.62
55517;BME280;41724;51.176;-0.708;2023-01-26T08:56:18;102551.14;;;7.84;59.21
55517;BME280;41724;51.176;-0.708;2023-01-26T08:58:47;102550.18;;;8.03;58.79
55517;BME280;41724;51.176;-0.708;2023-01-26T09:01:16;102551.02;;;7.91;59.02
55517;BME280;41724;51.176;-0.708;2023-01-26T09:03:43;102548.99;;;7.87;58.84
55517;BME280;41724;51.176;-0.708;2023-01-26T09:06:12;102556.66;;;8.54;58.45
55517;BME280;41724;51.176;-0.708;2023-01-26T09:08:40;102557.81;;;8.33;57.56
55517;BME280;41724;51.176;-0.708;2023-01-26T09:11:07;102561.72;;;7.90;58.52
55517;BME280;41724;51.176;-0.708;2023-01-26T09:13:35;102561.59;;;7.79;58.63
55517;BME280;41724;51.176;-0.708;2023-01-26T09:16:03;102558.68;;;7.86;58.86
55517;BME280;41724;51.176;-0.708;2023-01-26T09:18:30;102568.69;;;8.29;58.02
55517;BME280;41724;51.176;-0.708;2023-01-26T09:21:02;102572.63;;;8.71;58.19
55517;BME280;41724;51.176;-0.708;2023-01-26T09:23:30;102571.08;;;8.63;57.67
55517;BME280;41724;51.176;-0.708;2023-01-26T09:25:58;102578.25;;;7.41;58.16
55517;BME280;41724;51.176;-0.708;2023-01-26T09:28:25;102578.17;;;8.41;57.72
55517;BME280;41724;51.176;-0.708;2023-01-26T09:30:52;102579.95;;;8.27;57.92
55517;BME280;41724;51.176;-0.708;2023-01-26T09:33:20;102580.41;;;7.97;58.20
55517;BME280;41724;51.176;-0.708;2023-01-26T09:35:49;102588.70;;;7.68;58.88
55517;BME280;41724;51.176;-0.708;2023-01-26T09:38:16;102585.24;;;8.37;59.09
55517;BME280;41724;51.176;-0.708;2023-01-26T09:40:49;102585.68;;;8.05;59.40
55517;BME280;41724;51.176;-0.708;2023-01-26T09:43:24;102593.65;;;8.11;58.93
55517;BME280;41724;51.176;-0.708;2023-01-26T09:46:02;102591.32;;;8.54;58.57
55517;BME280;41724;51.176;-0.708;2023-01-26T09:48:40;102583.54;;;8.75;58.75
55517;BME280;41724;51.176;-0.708;2023-01-26T09:51:12;102587.27;;;8.47;57.64
55517;BME280;41724;51.176;-0.708;2023-01-26T09:53:46;102589.96;;;8.85;57.33
55517;BME280;41724;51.176;-0.708;2023-01-26T09:56:18;102593.40;;;8.91;56.31
55517;BME280;41724;51.176;-0.708;2023-01-26T09:58:48;102600.93;;;8.52;57.28
55517;BME280;41724;51.176;-0.708;2023-01-26T10:01:25;102589.85;;;8.18;58.29
55517;BME280;41724;51.176;-0.708;2023-01-26T10:04:04;102594.98;;;8.41;57.53
55517;BME280;41724;51.176;-0.708;2023-01-26T10:06:37;102600.37;;;8.41;56.99
55517;BME280;41724;51.176;-0.708;2023-01-26T10:09:13;102603.61;;;7.62;59.55
55517;BME280;41724;51.176;-0.708;2023-01-26T10:11:45;102603.91;;;7.38;60.51
55517;BME280;41724;51.176;-0.708;2023-01-26T10:14:17;102606.27;;;8.18;59.05
55517;BME280;41724;51.176;-0.708;2023-01-26T10:16:49;102605.56;;;8.01;59.48
55517;BME280;41724;51.176;-0.708;2023-01-26T10:19:30;102608.83;;;7.93;59.48
55517;BME280;41724;51.176;-0.708;2023-01-26T10:22:10;102610.78;;;8.50;59.08
55517;BME280;41724;51.176;-0.708;2023-01-26T10:24:41;102613.59;;;8.22;58.54
55517;BME280;41724;51.176;-0.708;2023-01-26T10:27:17;102613.23;;;8.50;60.09
55517;BME280;41724;51.176;-0.708;2023-01-26T10:29:44;102613.29;;;7.77;61.14
55517;BME280;41724;51.176;-0.708;2023-01-26T10:32:12;102618.60;;;8.05;61.43
55517;BME280;41724;51.176;-0.708;2023-01-26T10:34:41;102623.69;;;8.52;60.22
55517;BME280;41724;51.176;-0.708;2023-01-26T10:37:18;102621.09;;;8.29;60.01
55517;BME280;41724;51.176;-0.708;2023-01-26T10:40:02;102620.28;;;8.76;60.44
55517;BME280;41724;51.176;-0.708;2023-01-26T10:42:33;102618.27;;;9.10;58.88
55517;BME280;41724;51.176;-0.708;2023-01-26T10:45:03;102619.32;;;9.06;58.91
55517;BME280;41724;51.176;-0.708;2023-01-26T10:47:31;102624.32;;;8.99;58.97
55517;BME280;41724;51.176;-0.708;2023-01-26T10:50:21;102617.32;;;7.69;60.55
55517;BME280;41724;51.176;-0.708;2023-01-26T10:52:58;102617.31;;;8.58;60.64
55517;BME280;41724;51.176;-0.708;2023-01-26T10:55:26;102619.16;;;8.18;61.27
55517;BME280;41724;51.176;-0.708;2023-01-26T10:57:54;102617.02;;;8.56;60.38
55517;BME280;41724;51.176;-0.708;2023-01-26T11:00:24;102617.95;;;8.65;60.93
55517;BME280;41724;51.176;-0.708;2023-01-26T11:02:55;102611.60;;;8.55;60.80
55517;BME280;41724;51.176;-0.708;2023-01-26T11:05:25;102611.62;;;8.91;60.29
55517;BME280;41724;51.176;-0.708;2023-01-26T11:07:54;102610.19;;;8.36;59.84
55517;BME280;41724;51.176;-0.708;2023-01-26T11:10:26;102610.15;;;8.93;60.11
55517;BME280;41724;51.176;-0.708;2023-01-26T11:13:07;102608.40;;;8.83;60.02
55517;BME280;41724;51.176;-0.708;2023-01-26T11:15:37;102608.68;;;9.05;60.31
55517;BME280;41724;51.176;-0.708;2023-01-26T11:18:14;102604.07;;;7.99;62.06
55517;BME280;41724;51.176;-0.708;2023-01-26T11:20:57;102604.97;;;8.42;62.08
55517;BME280;41724;51.176;-0.708;2023-01-26T11:23:37;102608.33;;;8.57;62.03
55517;BME280;41724;51.176;-0.708;2023-01-26T11:26:31;102608.59;;;8.46;62.66
55517;BME280;41724;51.176;-0.708;2023-01-26T11:29:21;102614.26;;;8.92;61.83
55517;BME280;41724;51.176;-0.708;2023-01-26T11:32:05;102612.34;;;8.74;62.12
55517;BME280;41724;51.176;-0.708;2023-01-26T11:34:46;102609.66;;;8.92;62.22
55517;BME280;41724;51.176;-0.708;2023-01-26T11:37:41;102608.36;;;9.18;61.12
55517;BME280;41724;51.176;-0.708;2023-01-26T11:40:19;102599.20;;;9.00;61.67
55517;BME280;41724;51.176;-0.708;2023-01-26T11:42:56;102594.44;;;9.39;60.92
55517;BME280;41724;51.176;-0.708;2023-01-26T11:45:31;102597.48;;;9.09;60.79
55517;BME280;41724;51.176;-0.708;2023-01-26T11:48:15;102604.23;;;9.66;60.37
55517;BME280;41724;51.176;-0.708;2023-01-26T11:50:54;102596.94;;;9.97;59.29
55517;BME280;41724;51.176;-0.708;2023-01-26T11:53:54;102602.25;;;10.10;59.03
55517;BME280;41724;51.176;-0.708;2023-01-26T11:56:36;102599.41;;;9.39;59.72
55517;BME280;41724;51.176;-0.708;2023-01-26T11:59:12;102598.71;;;9.53;59.82
55517;BME280;41724;51.176;-0.708;2023-01-26T12:01:45;102598.53;;;9.49;59.24
55517;BME280;41724;51.176;-0.708;2023-01-26T12:04:18;102589.00;;;10.29;59.07
55517;BME280;41724;51.176;-0.708;2023-01-26T12:06:49;102580.97;;;10.39;57.86
55517;BME280;41724;51.176;-0.708;2023-01-26T12:09:24;102582.57;;;10.67;57.12
55517;BME280;41724;51.176;-0.708;2023-01-26T12:11:59;102580.33;;;10.51;58.87
55517;BME280;41724;51.176;-0.708;2023-01-26T12:14:32;102576.55;;;10.83;56.38
55517;BME280;41724;51.176;-0.708;2023-01-26T12:17:29;102578.16;;;10.80;57.03
55517;BME280;41724;51.176;-0.708;2023-01-26T12:20:11;102577.54;;;10.45;57.78
55517;BME280;41724;51.176;-0.708;2023-01-26T12:22:48;102575.28;;;10.66;56.61
55517;BME280;41724;51.176;-0.708;2023-01-26T12:25:26;102577.42;;;10.67;56.56
55517;BME280;41724;51.176;-0.708;2023-01-26T12:28:00;102575.86;;;10.37;57.21
55517;BME280;41724;51.176;-0.708;2023-01-26T12:30:34;102570.44;;;10.25;57.51
55517;BME280;41724;51.176;-0.708;2023-01-26T12:33:03;102560.23;;;10.47;57.86
55517;BME280;41724;51.176;-0.708;2023-01-26T12:35:49;102566.24;;;9.84;58.53
55517;BME280;41724;51.176;-0.708;2023-01-26T12:38:22;102566.44;;;10.50;57.95
55517;BME280;41724;51.176;-0.708;2023-01-26T12:41:05;102566.97;;;10.01;58.95
55517;BME280;41724;51.176;-0.708;2023-01-26T12:43:47;102565.52;;;10.12;58.84
55517;BME280;41724;51.176;-0.708;2023-01-26T12:46:20;102562.68;;;10.58;58.49
55517;BME280;41724;51.176;-0.708;2023-01-26T12:48:52;102563.56;;;10.58;57.07
55517;BME280;41724;51.176;-0.708;2023-01-26T12:51:26;102563.88;;;10.75;56.58
55517;BME280;41724;51.176;-0.708;2023-01-26T12:53:58;102570.88;;;10.19;57.41
55517;BME280;41724;51.176;-0.708;2023-01-26T12:56:31;102573.32;;;10.43;57.89
55517;BME280;41724;51.176;-0.708;2023-01-26T12:59:10;102565.61;;;10.96;56.29
55517;BME280;41724;51.176;-0.708;2023-01-26T13:01:41;102565.93;;;10.39;57.48
55517;BME280;41724;51.176;-0.708;2023-01-26T13:04:10;102564.58;;;10.73;55.28